createdAt,value
2023-03-06T00:01:32.307Z,6.78
2023-03-06T00:04:34.958Z,5.65
2023-03-06T00:07:37.785Z,5.75
2023-03-06T00:10:40.715Z,5.73
2023-03-06T00:13:43.278Z,6.80
2023-03-06T00:16:45.884Z,6.05
2023-03-06T00:19:48.472Z,6.00
2023-03-06T00:22:51.584Z,5.50
2023-03-06T00:25:54.240Z,6.17
2023-03-06T00:28:57.727Z,5.82
2023-03-06T00:32:00.413Z,5.72
2023-03-06T00:35:03.209Z,5.78
2023-03-06T00:38:06.012Z,5.95
2023-03-06T00:41:12.996Z,6.50
2023-03-06T00:44:15.627Z,7.20
2023-03-06T00:47:18.510Z,6.20
2023-03-06T00:50:21.167Z,5.60
2023-03-06T00:53:24.119Z,6.90
2023-03-06T00:56:26.710Z,5.60
2023-03-06T00:59:29.513Z,6.25
2023-03-06T01:02:32.623Z,5.78
2023-03-06T01:05:37.297Z,6.47
2023-03-06T01:08:41.791Z,5.43
2023-03-06T01:11:44.643Z,6.13
2023-03-06T01:14:47.279Z,5.85
2023-03-06T01:17:53.839Z,6.10
2023-03-06T01:20:56.497Z,6.30
2023-03-06T01:23:59.185Z,5.80
2023-03-06T01:27:01.882Z,5.60
2023-03-06T01:30:04.951Z,5.63
2023-03-06T01:33:07.712Z,5.53
2023-03-06T01:36:12.686Z,4.95
2023-03-06T01:39:15.352Z,5.93
2023-03-06T01:42:18.147Z,5.10
2023-03-06T01:45:20.807Z,5.65
2023-03-06T01:48:24.634Z,5.90
2023-03-06T01:51:32.705Z,5.47
2023-03-06T01:54:50.557Z,5.82
2023-03-06T01:57:57.871Z,5.33
2023-03-06T02:01:00.591Z,5.38
2023-03-06T02:04:03.577Z,5.78
2023-03-06T02:07:07.794Z,5.60
2023-03-06T02:10:11.176Z,4.80
2023-03-06T02:13:13.749Z,5.43
2023-03-06T02:16:17.805Z,5.85
2023-03-06T02:19:34.950Z,5.65
2023-03-06T02:22:48.831Z,5.55
2023-03-06T02:25:53.999Z,5.68
2023-03-06T02:28:59.333Z,5.87
2023-03-06T02:32:03.058Z,5.05
2023-03-06T02:35:07.241Z,5.32
2023-03-06T02:38:13.853Z,4.63
2023-03-06T02:41:17.494Z,4.78
2023-03-06T02:44:22.807Z,5.17
2023-03-06T02:47:25.587Z,4.90
2023-03-06T02:50:28.708Z,4.90
2023-03-06T02:53:31.808Z,5.50
2023-03-06T02:56:35.483Z,4.63
2023-03-06T02:59:38.603Z,5.40
2023-03-06T03:02:42.276Z,5.20
2023-03-06T03:05:44.882Z,5.20
2023-03-06T03:08:55.382Z,4.88
2023-03-06T03:11:58.709Z,4.85
2023-03-06T03:15:01.428Z,4.70
2023-03-06T03:18:05.290Z,5.03
2023-03-06T03:21:10.767Z,4.82
2023-03-06T03:24:13.627Z,4.80
2023-03-06T03:27:18.003Z,4.68
2023-03-06T03:30:21.069Z,4.47
2023-03-06T03:33:24.231Z,6.47
2023-03-06T03:36:27.681Z,5.53
2023-03-06T03:39:30.934Z,5.43
2023-03-06T03:42:34.038Z,4.70
2023-03-06T03:45:36.674Z,4.83
2023-03-06T03:48:40.565Z,5.65
2023-03-06T03:51:43.759Z,5.00
2023-03-06T03:54:46.503Z,5.45
2023-03-06T03:57:49.517Z,5.20
2023-03-06T04:00:52.339Z,4.40
2023-03-06T04:03:55.050Z,5.40
2023-03-06T04:06:58.206Z,5.50
2023-03-06T04:10:00.808Z,4.78
2023-03-06T04:13:08.781Z,4.75
2023-03-06T04:16:15.483Z,4.60
2023-03-06T04:19:18.584Z,4.55
2023-03-06T04:22:21.568Z,4.57
2023-03-06T04:25:24.592Z,5.20
2023-03-06T04:28:27.581Z,5.45
2023-03-06T04:31:30.452Z,5.20
2023-03-06T04:34:33.165Z,5.25
2023-03-06T04:37:36.334Z,5.75
2023-03-06T04:40:39.294Z,5.18
2023-03-06T04:43:42.003Z,5.15
2023-03-06T04:46:46.000Z,4.87
2023-03-06T04:49:48.627Z,5.30
2023-03-06T04:52:51.800Z,4.65
2023-03-06T04:55:54.382Z,4.70
2023-03-06T04:58:57.379Z,4.57
2023-03-06T05:02:00.002Z,5.30
2023-03-06T05:05:04.350Z,4.88
2023-03-06T05:08:07.343Z,4.93
2023-03-06T05:11:10.123Z,5.05
2023-03-06T05:14:12.867Z,5.32
2023-03-06T05:17:15.462Z,6.00
2023-03-06T05:20:18.319Z,4.68
2023-03-06T05:23:20.937Z,5.32
2023-03-06T05:26:23.614Z,5.00
2023-03-06T05:29:26.407Z,4.50
2023-03-06T05:32:29.466Z,5.97
2023-03-06T05:35:32.400Z,5.70
2023-03-06T05:38:35.515Z,5.15
2023-03-06T05:41:38.354Z,5.93
2023-03-06T05:44:41.865Z,4.95
2023-03-06T05:47:44.492Z,6.27
2023-03-06T05:50:55.439Z,4.95
2023-03-06T05:53:58.431Z,4.70
2023-03-06T05:57:01.678Z,5.80
2023-03-06T06:00:05.556Z,5.00
2023-03-06T06:03:15.245Z,5.53
2023-03-06T06:06:18.173Z,4.90
2023-03-06T06:09:22.574Z,5.88
2023-03-06T06:12:27.272Z,7.72
2023-03-06T06:15:34.300Z,5.00
2023-03-06T06:18:40.624Z,5.13
2023-03-06T06:21:47.080Z,5.25
2023-03-06T06:24:50.532Z,6.43
2023-03-06T06:27:55.446Z,5.80
2023-03-06T06:30:58.264Z,8.55
2023-03-06T06:34:01.105Z,6.60
2023-03-06T06:37:06.088Z,6.88
2023-03-06T06:40:09.476Z,6.90
2023-03-06T06:43:12.793Z,4.93
2023-03-06T06:46:53.324Z,5.90
2023-03-06T06:49:39.683Z,7.80
2023-03-06T06:52:42.545Z,5.72
2023-03-06T06:55:54.182Z,5.90
2023-03-06T06:59:15.307Z,6.07
2023-03-06T07:02:20.885Z,5.07
2023-03-06T07:05:24.087Z,4.93
2023-03-06T07:08:27.124Z,6.88
2023-03-06T07:11:29.927Z,6.60
2023-03-06T07:14:35.126Z,5.68
2023-03-06T07:17:38.208Z,5.55
2023-03-06T07:20:41.389Z,6.33
2023-03-06T07:23:44.726Z,6.18
2023-03-06T07:26:48.296Z,7.60
2023-03-06T07:29:51.421Z,8.50
2023-03-06T07:32:58.520Z,7.03
2023-03-06T07:36:04.237Z,7.60
2023-03-06T07:39:08.666Z,6.82
2023-03-06T07:42:13.896Z,7.63
2023-03-06T07:45:25.292Z,6.15
2023-03-06T07:48:31.190Z,6.15
2023-03-06T07:51:41.589Z,10.37
2023-03-06T07:54:44.217Z,8.05
2023-03-06T07:57:50.752Z,8.93
2023-03-06T08:00:54.626Z,9.98
2023-03-06T08:03:58.861Z,10.10
2023-03-06T08:07:01.573Z,7.63
2023-03-06T08:10:05.659Z,10.00
2023-03-06T08:13:09.073Z,7.90
2023-03-06T08:16:59.211Z,7.18
2023-03-06T08:20:07.420Z,7.10
2023-03-06T08:23:11.275Z,6.47
2023-03-06T08:26:22.241Z,6.90
2023-03-06T08:29:25.403Z,8.65
2023-03-06T08:32:29.071Z,8.63
2023-03-06T08:35:35.538Z,8.55
2023-03-06T08:38:39.061Z,6.53
2023-03-06T08:41:44.572Z,5.78
2023-03-06T08:44:47.236Z,5.65
2023-03-06T08:47:51.357Z,6.75
2023-03-06T08:50:55.925Z,9.80
2023-03-06T08:54:02.088Z,9.30
2023-03-06T08:57:06.732Z,8.52
2023-03-06T09:00:11.056Z,8.85
2023-03-06T09:03:13.985Z,10.45
2023-03-06T09:06:19.811Z,7.93
2023-03-06T09:09:22.976Z,11.43
2023-03-06T09:12:26.178Z,8.70
2023-03-06T09:15:29.905Z,7.43
2023-03-06T09:18:35.782Z,7.85
2023-03-06T09:21:41.159Z,9.77
2023-03-06T09:24:43.950Z,9.27
2023-03-06T09:28:01.810Z,7.72
2023-03-06T09:31:14.264Z,6.82
2023-03-06T09:34:17.178Z,7.50
2023-03-06T09:37:19.822Z,7.13
2023-03-06T09:40:48.249Z,8.07
2023-03-06T09:43:55.246Z,6.68
2023-03-06T09:47:20.685Z,8.77
2023-03-06T09:50:37.951Z,8.93
2023-03-06T09:54:08.578Z,10.25
2023-03-06T09:57:35.356Z,10.60
2023-03-06T10:00:47.906Z,8.52
2023-03-06T10:04:02.885Z,8.32
2023-03-06T10:07:28.490Z,8.95
2023-03-06T10:10:50.356Z,9.82
2023-03-06T10:14:14.074Z,7.00
2023-03-06T10:17:24.113Z,6.80
2023-03-06T10:20:36.657Z,9.07
2023-03-06T10:23:46.356Z,9.23
2023-03-06T10:27:01.165Z,6.32
2023-03-06T10:30:28.088Z,6.17
2023-03-06T10:33:50.939Z,6.05
2023-03-06T10:36:53.725Z,8.05
2023-03-06T10:40:08.433Z,5.72
2023-03-06T10:43:14.531Z,8.40
2023-03-06T10:46:32.645Z,8.97
2023-03-06T10:49:38.948Z,7.88
2023-03-06T10:52:41.669Z,9.77
2023-03-06T10:55:53.932Z,7.47
2023-03-06T10:59:19.209Z,9.80
2023-03-06T11:02:34.355Z,13.43
2023-03-06T11:05:37.817Z,8.32
2023-03-06T11:08:44.028Z,12.52
2023-03-06T11:11:47.500Z,11.90
2023-03-06T11:15:23.604Z,7.70
2023-03-06T11:18:36.058Z,9.13
2023-03-06T11:21:40.537Z,13.98
2023-03-06T11:24:48.737Z,10.05
2023-03-06T11:27:58.029Z,9.07
2023-03-06T11:31:12.654Z,10.88
2023-03-06T11:34:27.499Z,10.90
2023-03-06T11:37:39.361Z,8.40
2023-03-06T11:40:56.441Z,6.55
2023-03-06T11:44:37.475Z,7.53
2023-03-06T11:47:46.442Z,8.38
2023-03-06T11:50:52.699Z,11.20
2023-03-06T11:53:58.741Z,9.60
2023-03-06T11:57:21.896Z,11.13
2023-03-06T12:01:07.101Z,11.95
2023-03-06T12:04:42.043Z,8.68
2023-03-06T12:08:03.370Z,8.47
2023-03-06T12:11:24.444Z,9.48
2023-03-06T12:14:54.458Z,9.90
2023-03-06T12:18:24.240Z,7.70
2023-03-06T12:21:35.917Z,8.38
2023-03-06T12:25:05.403Z,10.77
2023-03-06T12:28:29.200Z,11.05
2023-03-06T12:32:11.356Z,7.68
2023-03-06T12:35:33.874Z,11.48
2023-03-06T12:38:56.207Z,9.60
2023-03-06T12:42:32.875Z,9.97
2023-03-06T12:45:39.209Z,13.63
2023-03-06T12:48:46.999Z,10.27
2023-03-06T12:51:51.308Z,12.13
2023-03-06T12:54:54.794Z,11.02
2023-03-06T12:58:30.290Z,8.03
2023-03-06T13:01:48.278Z,10.30
2023-03-06T13:05:10.919Z,15.70
2023-03-06T13:08:52.861Z,8.98
2023-03-06T13:12:37.536Z,8.07
2023-03-06T13:16:10.718Z,12.30
2023-03-06T13:19:26.285Z,13.65
2023-03-06T13:22:29.995Z,8.65
2023-03-06T13:25:34.969Z,9.98
2023-03-06T13:28:50.075Z,9.18
2023-03-06T13:32:16.433Z,9.63
2023-03-06T13:35:34.414Z,10.02
2023-03-06T13:38:40.160Z,10.20
2023-03-06T13:42:01.368Z,8.57
2023-03-06T13:45:15.857Z,8.25
2023-03-06T13:48:47.668Z,10.40
2023-03-06T13:51:53.214Z,10.00
2023-03-06T13:55:13.210Z,12.02
2023-03-06T13:58:18.963Z,9.27
2023-03-06T14:01:23.861Z,8.75
2023-03-06T14:04:57.760Z,9.80
2023-03-06T14:08:09.292Z,7.70
2023-03-06T14:11:21.553Z,6.38
2023-03-06T14:14:34.645Z,7.88
2023-03-06T14:17:39.264Z,8.95
2023-03-06T14:20:46.036Z,8.13
2023-03-06T14:24:00.544Z,8.73
2023-03-06T14:27:04.240Z,8.20
2023-03-06T14:30:13.316Z,7.55
2023-03-06T14:33:35.068Z,9.55
2023-03-06T14:36:46.750Z,7.07
2023-03-06T14:39:49.748Z,7.35
2023-03-06T14:43:23.787Z,9.65
2023-03-06T14:46:26.589Z,9.27
2023-03-06T14:49:29.502Z,8.55
2023-03-06T14:52:32.628Z,10.90
2023-03-06T14:55:36.176Z,6.70
2023-03-06T14:58:59.511Z,10.30
2023-03-06T15:02:06.144Z,7.10
2023-03-06T15:05:22.998Z,9.10
2023-03-06T15:08:31.963Z,9.20
2023-03-06T15:11:55.342Z,9.10
2023-03-06T15:15:01.342Z,8.35
2023-03-06T15:18:28.800Z,8.88
2023-03-06T15:21:38.687Z,8.68
2023-03-06T15:24:41.586Z,10.27
2023-03-06T15:28:01.124Z,9.93
2023-03-06T15:31:05.150Z,11.35
2023-03-06T15:34:09.344Z,8.35
2023-03-06T15:37:29.147Z,10.25
2023-03-06T15:40:32.138Z,7.67
2023-03-06T15:43:38.397Z,8.45
2023-03-06T15:46:41.914Z,6.55
2023-03-06T15:49:44.892Z,9.68
2023-03-06T15:52:48.640Z,7.93
2023-03-06T15:55:52.834Z,7.17
2023-03-06T15:58:57.200Z,7.63
2023-03-06T16:02:11.150Z,8.07
2023-03-06T16:05:18.607Z,10.38
2023-03-06T16:08:24.830Z,10.52
2023-03-06T16:11:42.002Z,8.17
2023-03-06T16:14:48.904Z,58.47
2023-03-06T16:17:51.589Z,95.63
2023-03-06T16:20:54.663Z,96.32
2023-03-06T16:23:57.714Z,80.15
2023-03-06T16:27:01.933Z,49.10
2023-03-06T16:30:05.393Z,39.38
2023-03-06T16:33:11.433Z,47.75
2023-03-06T16:36:18.476Z,32.63
2023-03-06T16:39:24.367Z,48.15
2023-03-06T16:42:27.214Z,42.20
2023-03-06T16:45:31.362Z,32.15
2023-03-06T16:48:35.398Z,39.03
2023-03-06T16:51:40.601Z,43.03
2023-03-06T16:54:45.385Z,36.10
2023-03-06T16:57:48.472Z,32.73
2023-03-06T17:00:51.519Z,32.72
2023-03-06T17:03:56.457Z,27.38
2023-03-06T17:06:59.594Z,29.83
2023-03-06T17:10:03.278Z,27.63
2023-03-06T17:13:07.956Z,24.20
2023-03-06T17:16:16.643Z,30.40
2023-03-06T17:19:20.904Z,32.75
2023-03-06T17:22:24.109Z,21.42
2023-03-06T17:25:27.330Z,23.45
2023-03-06T17:28:32.132Z,29.20
2023-03-06T17:31:35.409Z,36.78
2023-03-06T17:34:38.584Z,25.25
2023-03-06T17:37:41.832Z,26.75
2023-03-06T17:40:45.016Z,27.48
2023-03-06T17:43:49.468Z,21.93
2023-03-06T17:46:53.064Z,22.95
2023-03-06T17:49:57.723Z,20.23
2023-03-06T17:53:00.708Z,27.23
2023-03-06T17:56:05.927Z,20.60
2023-03-06T17:59:11.068Z,24.43
2023-03-06T18:02:15.210Z,23.27
2023-03-06T18:05:21.476Z,20.92
2023-03-06T18:08:27.423Z,25.30
2023-03-06T18:11:33.446Z,19.30
2023-03-06T18:14:37.612Z,22.80
2023-03-06T18:17:41.216Z,19.77
2023-03-06T18:20:47.284Z,17.77
2023-03-06T18:23:51.587Z,13.00
2023-03-06T18:26:55.818Z,15.52
2023-03-06T18:29:59.795Z,23.70
2023-03-06T18:33:03.794Z,20.75
2023-03-06T18:36:07.855Z,16.27
2023-03-06T18:39:15.140Z,17.45
2023-03-06T18:42:19.027Z,15.10
2023-03-06T18:45:22.228Z,18.57
2023-03-06T18:48:26.244Z,15.30
2023-03-06T18:51:30.663Z,19.52
2023-03-06T18:54:34.305Z,17.75
2023-03-06T18:57:38.640Z,17.70
2023-03-06T19:00:45.842Z,19.93
2023-03-06T19:03:50.079Z,17.42
2023-03-06T19:06:54.809Z,17.42
2023-03-06T19:09:57.784Z,14.70
2023-03-06T19:13:01.094Z,17.85
2023-03-06T19:16:04.955Z,14.37
2023-03-06T19:19:10.027Z,18.92
2023-03-06T19:22:13.684Z,15.30
2023-03-06T19:25:17.617Z,22.00
2023-03-06T19:28:21.639Z,16.25
2023-03-06T19:31:28.261Z,16.13
2023-03-06T19:34:33.820Z,12.30
2023-03-06T19:37:37.912Z,22.95
2023-03-06T19:40:48.559Z,15.45
2023-03-06T19:43:55.254Z,18.88
2023-03-06T19:46:59.548Z,15.33
2023-03-06T19:50:07.168Z,12.93
2023-03-06T19:53:12.214Z,17.35
2023-03-06T19:56:21.817Z,14.80
2023-03-06T19:59:25.575Z,14.25
2023-03-06T20:02:29.971Z,15.70
2023-03-06T20:05:34.177Z,14.50
2023-03-06T20:08:38.580Z,13.73
2023-03-06T20:11:41.857Z,11.02
2023-03-06T20:14:47.825Z,12.20
2023-03-06T20:17:56.645Z,14.73
2023-03-06T20:21:02.535Z,8.90
2023-03-06T20:24:08.976Z,13.05
2023-03-06T20:27:15.493Z,11.20
2023-03-06T20:30:18.842Z,16.38
2023-03-06T20:33:23.193Z,11.27
2023-03-06T20:36:36.669Z,14.63
2023-03-06T20:39:43.062Z,13.65
2023-03-06T20:42:46.828Z,15.88
2023-03-06T20:46:01.466Z,12.55
2023-03-06T20:49:05.510Z,11.43
2023-03-06T20:52:08.852Z,13.25
2023-03-06T20:55:12.127Z,11.07
2023-03-06T20:58:17.902Z,10.77
2023-03-06T21:01:22.848Z,12.30
2023-03-06T21:04:26.383Z,13.13
2023-03-06T21:07:29.891Z,14.02
2023-03-06T21:10:33.275Z,13.57
2023-03-06T21:13:36.335Z,10.30
2023-03-06T21:16:39.607Z,12.43
2023-03-06T21:19:42.825Z,8.17
2023-03-06T21:22:49.138Z,9.27
2023-03-06T21:25:52.932Z,11.18
2023-03-06T21:28:59.362Z,8.50
2023-03-06T21:32:02.229Z,9.20
2023-03-06T21:35:05.323Z,11.53
2023-03-06T21:38:08.225Z,8.82
2023-03-06T21:41:16.958Z,11.63
2023-03-06T21:44:19.841Z,12.43
2023-03-06T21:47:22.469Z,10.38
2023-03-06T21:50:25.780Z,10.70
2023-03-06T21:53:28.328Z,11.60
2023-03-06T21:56:33.167Z,11.13
2023-03-06T21:59:36.766Z,10.25
2023-03-06T22:02:39.397Z,11.05
2023-03-06T22:05:43.336Z,10.60
2023-03-06T22:08:46.941Z,10.48
2023-03-06T22:11:49.721Z,10.65
2023-03-06T22:14:52.473Z,9.93
2023-03-06T22:17:55.138Z,11.60
2023-03-06T22:20:58.114Z,11.83
2023-03-06T22:24:00.789Z,7.82
2023-03-06T22:27:03.676Z,8.02
2023-03-06T22:30:07.108Z,8.57
2023-03-06T22:33:09.857Z,9.00
2023-03-06T22:36:14.804Z,10.17
2023-03-06T22:39:17.410Z,9.73
2023-03-06T22:42:20.216Z,9.50
2023-03-06T22:45:22.803Z,9.65
2023-03-06T22:48:25.430Z,8.32
2023-03-06T22:51:29.753Z,8.83
2023-03-06T22:54:32.374Z,6.38
2023-03-06T22:57:34.962Z,8.40
2023-03-06T23:00:37.583Z,7.13
2023-03-06T23:03:42.544Z,7.13
2023-03-06T23:06:47.105Z,8.60
2023-03-06T23:09:49.781Z,8.65
2023-03-06T23:13:11.730Z,8.10
2023-03-06T23:16:33.533Z,7.65
2023-03-06T23:19:54.773Z,7.63
2023-03-06T23:23:16.219Z,8.50
2023-03-06T23:26:21.510Z,8.10
2023-03-06T23:29:24.323Z,8.68
2023-03-06T23:32:27.444Z,7.68
2023-03-06T23:35:30.224Z,6.72
2023-03-06T23:38:33.135Z,9.70
2023-03-06T23:41:36.111Z,7.50
2023-03-06T23:44:38.627Z,9.80
2023-03-06T23:47:41.294Z,7.95
2023-03-06T23:50:44.131Z,9.70
2023-03-06T23:53:52.663Z,12.73
2023-03-06T23:56:55.390Z,8.40
2023-03-06T23:59:57.980Z,8.70
